sensor_id;sensor_type;location;lat;lon;timestamp;P1;durP1;ratioP1;P2;durP2;ratioP2
57744;SDS011;58941;50.168;4.410;2023-06-10T00:01:39;3.45;;;3.15;;
57744;SDS011;58941;50.168;4.410;2023-06-10T00:04:05;3.38;;;3.08;;
57744;SDS011;58941;50.168;4.410;2023-06-10T00:06:31;3.47;;;3.00;;
57744;SDS011;58941;50.168;4.410;2023-06-10T00:09:02;3.10;;;2.90;;
57744;SDS011;58941;50.168;4.410;2023-06-10T00:11:30;3.78;;;3.03;;
57744;SDS011;58941;50.168;4.410;2023-06-10T00:13:55;3.30;;;3.00;;
57744;SDS011;58941;50.168;4.410;2023-06-10T00:16:21;3.47;;;3.17;;
57744;SDS011;58941;50.168;4.410;2023-06-10T00:18:46;3.17;;;2.88;;
57744;SDS011;58941;50.168;4.410;2023-06-10T00:21:12;3.08;;;2.88;;
57744;SDS011;58941;50.168;4.410;2023-06-10T00:23:38;3.30;;;3.00;;
57744;SDS011;58941;50.168;4.410;2023-06-10T00:26:04;3.00;;;2.80;;
57744;SDS011;58941;50.168;4.410;2023-06-10T00:28:30;3.20;;;2.95;;
57744;SDS011;58941;50.168;4.410;2023-06-10T00:30:55;3.35;;;2.97;;
57744;SDS011;58941;50.168;4.410;2023-06-10T00:33:21;3.42;;;3.13;;
57744;SDS011;58941;50.168;4.410;2023-06-10T00:35:46;3.53;;;3.25;;
57744;SDS011;58941;50.168;4.410;2023-06-10T00:38:13;3.33;;;3.03;;
57744;SDS011;58941;50.168;4.410;2023-06-10T00:40:39;3.38;;;3.08;;
57744;SDS011;58941;50.168;4.410;2023-06-10T00:43:06;3.45;;;3.15;;
57744;SDS011;58941;50.168;4.410;2023-06-10T00:45:31;3.75;;;3.05;;
57744;SDS011;58941;50.168;4.410;2023-06-10T00:47:57;3.78;;;3.47;;
57744;SDS011;58941;50.168;4.410;2023-06-10T00:50:23;3.63;;;3.33;;
57744;SDS011;58941;50.168;4.410;2023-06-10T00:52:48;3.10;;;2.90;;
57744;SDS011;58941;50.168;4.410;2023-06-10T00:55:16;3.38;;;3.10;;
57744;SDS011;58941;50.168;4.410;2023-06-10T00:57:42;3.28;;;3.03;;
57744;SDS011;58941;50.168;4.410;2023-06-10T01:00:10;3.72;;;3.40;;
57744;SDS011;58941;50.168;4.410;2023-06-10T01:02:36;3.17;;;2.97;;
57744;SDS011;58941;50.168;4.410;2023-06-10T01:05:01;3.50;;;3.20;;
57744;SDS011;58941;50.168;4.410;2023-06-10T01:07:31;3.40;;;3.20;;
57744;SDS011;58941;50.168;4.410;2023-06-10T01:12:52;3.22;;;2.92;;
57744;SDS011;58941;50.168;4.410;2023-06-10T01:15:16;4.22;;;3.30;;
57744;SDS011;58941;50.168;4.410;2023-06-10T01:17:58;3.80;;;3.50;;
57744;SDS011;58941;50.168;4.410;2023-06-10T01:20:27;3.65;;;3.35;;
57744;SDS011;58941;50.168;4.410;2023-06-10T01:22:56;3.47;;;3.17;;
57744;SDS011;58941;50.168;4.410;2023-06-10T01:25:23;3.58;;;3.28;;
57744;SDS011;58941;50.168;4.410;2023-06-10T01:30:39;3.65;;;3.30;;
57744;SDS011;58941;50.168;4.410;2023-06-10T01:33:07;3.70;;;3.40;;
57744;SDS011;58941;50.168;4.410;2023-06-10T01:35:35;3.70;;;3.40;;
57744;SDS011;58941;50.168;4.410;2023-06-10T01:38:02;3.72;;;3.28;;
57744;SDS011;58941;50.168;4.410;2023-06-10T01:40:28;3.47;;;3.17;;
57744;SDS011;58941;50.168;4.410;2023-06-10T01:42:54;3.65;;;3.35;;
57744;SDS011;58941;50.168;4.410;2023-06-10T01:45:19;3.67;;;3.38;;
57744;SDS011;58941;50.168;4.410;2023-06-10T01:47:45;3.72;;;3.30;;
57744;SDS011;58941;50.168;4.410;2023-06-10T01:50:11;3.17;;;2.97;;
57744;SDS011;58941;50.168;4.410;2023-06-10T01:52:36;3.85;;;3.53;;
57744;SDS011;58941;50.168;4.410;2023-06-10T01:55:02;3.65;;;3.35;;
57744;SDS011;58941;50.168;4.410;2023-06-10T01:57:28;3.40;;;3.20;;
57744;SDS011;58941;50.168;4.410;2023-06-10T01:59:53;3.65;;;3.35;;
57744;SDS011;58941;50.168;4.410;2023-06-10T02:02:19;3.53;;;3.28;;
57744;SDS011;58941;50.168;4.410;2023-06-10T02:04:44;3.60;;;3.30;;
57744;SDS011;58941;50.168;4.410;2023-06-10T02:07:10;3.97;;;3.67;;
57744;SDS011;58941;50.168;4.410;2023-06-10T02:09:37;3.70;;;3.40;;
57744;SDS011;58941;50.168;4.410;2023-06-10T02:12:03;3.75;;;3.45;;
57744;SDS011;58941;50.168;4.410;2023-06-10T02:14:29;4.53;;;3.85;;
57744;SDS011;58941;50.168;4.410;2023-06-10T02:16:54;3.50;;;3.20;;
57744;SDS011;58941;50.168;4.410;2023-06-10T02:19:22;3.72;;;3.40;;
57744;SDS011;58941;50.168;4.410;2023-06-10T02:21:47;3.63;;;3.33;;
57744;SDS011;58941;50.168;4.410;2023-06-10T02:24:13;4.05;;;3.75;;
57744;SDS011;58941;50.168;4.410;2023-06-10T02:26:38;4.15;;;3.28;;
57744;SDS011;58941;50.168;4.410;2023-06-10T02:29:04;3.85;;;3.55;;
57744;SDS011;58941;50.168;4.410;2023-06-10T02:31:30;3.55;;;3.25;;
57744;SDS011;58941;50.168;4.410;2023-06-10T02:33:55;3.90;;;3.60;;
57744;SDS011;58941;50.168;4.410;2023-06-10T02:36:21;6.38;;;3.63;;
57744;SDS011;58941;50.168;4.410;2023-06-10T02:38:50;3.67;;;3.38;;
57744;SDS011;58941;50.168;4.410;2023-06-10T02:41:15;3.90;;;3.50;;
57744;SDS011;58941;50.168;4.410;2023-06-10T02:43:41;4.00;;;3.70;;
57744;SDS011;58941;50.168;4.410;2023-06-10T02:46:06;4.07;;;3.70;;
57744;SDS011;58941;50.168;4.410;2023-06-10T02:48:38;3.90;;;3.60;;
57744;SDS011;58941;50.168;4.410;2023-06-10T02:51:05;3.97;;;3.30;;
57744;SDS011;58941;50.168;4.410;2023-06-10T02:53:31;3.83;;;3.53;;
57744;SDS011;58941;50.168;4.410;2023-06-10T02:55:56;3.90;;;3.60;;
57744;SDS011;58941;50.168;4.410;2023-06-10T02:58:22;3.83;;;3.50;;
57744;SDS011;58941;50.168;4.410;2023-06-10T03:00:47;3.97;;;3.67;;
57744;SDS011;58941;50.168;4.410;2023-06-10T03:03:13;4.00;;;3.60;;
57744;SDS011;58941;50.168;4.410;2023-06-10T03:05:38;5.30;;;3.60;;
57744;SDS011;58941;50.168;4.410;2023-06-10T03:08:04;4.97;;;3.90;;
57744;SDS011;58941;50.168;4.410;2023-06-10T03:10:29;3.95;;;3.58;;
57744;SDS011;58941;50.168;4.410;2023-06-10T03:12:55;3.88;;;3.58;;
57744;SDS011;58941;50.168;4.410;2023-06-10T03:15:20;4.07;;;3.78;;
57744;SDS011;58941;50.168;4.410;2023-06-10T03:17:46;4.28;;;3.88;;
57744;SDS011;58941;50.168;4.410;2023-06-10T03:20:11;4.00;;;3.42;;
57744;SDS011;58941;50.168;4.410;2023-06-10T03:22:37;3.70;;;3.40;;
57744;SDS011;58941;50.168;4.410;2023-06-10T03:25:03;3.80;;;3.42;;
57744;SDS011;58941;50.168;4.410;2023-06-10T03:27:29;4.00;;;3.70;;
57744;SDS011;58941;50.168;4.410;2023-06-10T03:29:55;4.15;;;3.85;;
57744;SDS011;58941;50.168;4.410;2023-06-10T03:32:21;4.13;;;3.65;;
57744;SDS011;58941;50.168;4.410;2023-06-10T03:34:46;3.90;;;3.60;;
57744;SDS011;58941;50.168;4.410;2023-06-10T03:37:12;4.05;;;3.75;;
57744;SDS011;58941;50.168;4.410;2023-06-10T03:39:38;4.30;;;3.70;;
57744;SDS011;58941;50.168;4.410;2023-06-10T03:42:04;3.95;;;3.53;;
57744;SDS011;58941;50.168;4.410;2023-06-10T03:44:29;3.95;;;3.65;;
57744;SDS011;58941;50.168;4.410;2023-06-10T03:46:55;4.85;;;3.50;;
57744;SDS011;58941;50.168;4.410;2023-06-10T03:49:21;3.92;;;3.63;;
57744;SDS011;58941;50.168;4.410;2023-06-10T03:51:52;4.05;;;3.72;;
57744;SDS011;58941;50.168;4.410;2023-06-10T03:54:18;3.75;;;3.45;;
57744;SDS011;58941;50.168;4.410;2023-06-10T03:56:44;4.10;;;3.70;;
57744;SDS011;58941;50.168;4.410;2023-06-10T03:59:09;3.90;;;3.60;;
57744;SDS011;58941;50.168;4.410;2023-06-10T04:01:35;3.78;;;3.47;;
57744;SDS011;58941;50.168;4.410;2023-06-10T04:04:03;4.18;;;3.88;;
57744;SDS011;58941;50.168;4.410;2023-06-10T04:06:29;4.03;;;3.63;;
57744;SDS011;58941;50.168;4.410;2023-06-10T04:08:54;4.22;;;3.83;;
57744;SDS011;58941;50.168;4.410;2023-06-10T04:11:23;4.00;;;3.70;;
57744;SDS011;58941;50.168;4.410;2023-06-10T04:13:49;4.07;;;3.78;;
57744;SDS011;58941;50.168;4.410;2023-06-10T04:16:14;4.05;;;3.63;;
57744;SDS011;58941;50.168;4.410;2023-06-10T04:18:40;3.80;;;3.50;;
57744;SDS011;58941;50.168;4.410;2023-06-10T04:21:07;3.80;;;3.50;;
57744;SDS011;58941;50.168;4.410;2023-06-10T04:23:32;4.00;;;3.70;;
57744;SDS011;58941;50.168;4.410;2023-06-10T04:25:58;4.30;;;3.90;;
57744;SDS011;58941;50.168;4.410;2023-06-10T04:28:24;3.78;;;3.47;;
57744;SDS011;58941;50.168;4.410;2023-06-10T04:30:50;3.90;;;3.60;;
57744;SDS011;58941;50.168;4.410;2023-06-10T04:33:15;4.00;;;3.70;;
57744;SDS011;58941;50.168;4.410;2023-06-10T04:35:41;4.38;;;3.97;;
57744;SDS011;58941;50.168;4.410;2023-06-10T04:38:07;4.18;;;3.88;;
57744;SDS011;58941;50.168;4.410;2023-06-10T04:40:33;3.78;;;3.47;;
57744;SDS011;58941;50.168;4.410;2023-06-10T04:42:58;4.20;;;3.90;;
57744;SDS011;58941;50.168;4.410;2023-06-10T04:45:23;4.03;;;3.70;;
57744;SDS011;58941;50.168;4.410;2023-06-10T04:47:49;3.80;;;3.50;;
57744;SDS011;58941;50.168;4.410;2023-06-10T04:50:14;4.20;;;3.90;;
57744;SDS011;58941;50.168;4.410;2023-06-10T04:52:41;4.20;;;3.80;;
57744;SDS011;58941;50.168;4.410;2023-06-10T04:55:10;4.03;;;3.72;;
57744;SDS011;58941;50.168;4.410;2023-06-10T04:57:36;4.20;;;3.90;;
57744;SDS011;58941;50.168;4.410;2023-06-10T05:00:01;3.88;;;3.58;;
57744;SDS011;58941;50.168;4.410;2023-06-10T05:02:31;3.80;;;3.50;;
57744;SDS011;58941;50.168;4.410;2023-06-10T05:04:56;3.95;;;3.65;;
57744;SDS011;58941;50.168;4.410;2023-06-10T05:07:23;4.05;;;3.75;;
57744;SDS011;58941;50.168;4.410;2023-06-10T05:09:49;3.88;;;3.58;;
57744;SDS011;58941;50.168;4.410;2023-06-10T05:12:14;3.95;;;3.65;;
57744;SDS011;58941;50.168;4.410;2023-06-10T05:14:39;4.13;;;3.80;;
57744;SDS011;58941;50.168;4.410;2023-06-10T05:17:05;4.20;;;3.80;;
57744;SDS011;58941;50.168;4.410;2023-06-10T05:19:31;3.85;;;3.55;;
57744;SDS011;58941;50.168;4.410;2023-06-10T05:21:57;4.43;;;4.03;;
57744;SDS011;58941;50.168;4.410;2023-06-10T05:24:23;3.80;;;3.50;;
57744;SDS011;58941;50.168;4.410;2023-06-10T05:26:48;3.78;;;3.47;;
57744;SDS011;58941;50.168;4.410;2023-06-10T05:29:14;4.03;;;3.70;;
57744;SDS011;58941;50.168;4.410;2023-06-10T05:31:41;3.75;;;3.45;;
57744;SDS011;58941;50.168;4.410;2023-06-10T05:34:06;4.15;;;3.60;;
57744;SDS011;58941;50.168;4.410;2023-06-10T05:36:32;4.05;;;3.75;;
57744;SDS011;58941;50.168;4.410;2023-06-10T05:38:57;4.07;;;3.67;;
57744;SDS011;58941;50.168;4.410;2023-06-10T05:41:23;4.03;;;3.72;;
57744;SDS011;58941;50.168;4.410;2023-06-10T05:43:48;4.38;;;4.07;;
57744;SDS011;58941;50.168;4.410;2023-06-10T05:46:14;3.97;;;3.63;;
57744;SDS011;58941;50.168;4.410;2023-06-10T05:48:39;4.25;;;3.85;;
57744;SDS011;58941;50.168;4.410;2023-06-10T05:51:05;4.05;;;3.75;;
57744;SDS011;58941;50.168;4.410;2023-06-10T05:53:31;3.72;;;3.42;;
57744;SDS011;58941;50.168;4.410;2023-06-10T05:55:57;3.75;;;3.45;;
57744;SDS011;58941;50.168;4.410;2023-06-10T05:58:23;4.38;;;3.90;;
57744;SDS011;58941;50.168;4.410;2023-06-10T06:00:48;4.32;;;3.92;;
57744;SDS011;58941;50.168;4.410;2023-06-10T06:03:14;4.60;;;4.15;;
57744;SDS011;58941;50.168;4.410;2023-06-10T06:05:39;4.10;;;3.70;;
57744;SDS011;58941;50.168;4.410;2023-06-10T06:08:05;3.92;;;3.63;;
57744;SDS011;58941;50.168;4.410;2023-06-10T06:10:31;4.22;;;3.92;;
57744;SDS011;58941;50.168;4.410;2023-06-10T06:12:56;4.15;;;3.75;;
57744;SDS011;58941;50.168;4.410;2023-06-10T06:15:22;3.97;;;3.67;;
57744;SDS011;58941;50.168;4.410;2023-06-10T06:17:47;5.00;;;4.13;;
57744;SDS011;58941;50.168;4.410;2023-06-10T06:20:13;3.90;;;3.60;;
57744;SDS011;58941;50.168;4.410;2023-06-10T06:22:38;4.20;;;3.90;;
57744;SDS011;58941;50.168;4.410;2023-06-10T06:25:04;4.18;;;3.80;;
57744;SDS011;58941;50.168;4.410;2023-06-10T06:27:29;4.30;;;3.97;;
57744;SDS011;58941;50.168;4.410;2023-06-10T06:29:55;3.90;;;3.60;;
57744;SDS011;58941;50.168;4.410;2023-06-10T06:32:20;3.88;;;3.58;;
57744;SDS011;58941;50.168;4.410;2023-06-10T06:34:48;4.10;;;3.80;;
57744;SDS011;58941;50.168;4.410;2023-06-10T06:37:25;4.25;;;3.90;;
57744;SDS011;58941;50.168;4.410;2023-06-10T06:42:15;4.38;;;3.97;;
57744;SDS011;58941;50.168;4.410;2023-06-10T06:44:41;5.40;;;3.72;;
57744;SDS011;58941;50.168;4.410;2023-06-10T06:47:07;4.53;;;4.13;;
57744;SDS011;58941;50.168;4.410;2023-06-10T06:49:32;4.03;;;3.72;;
57744;SDS011;58941;50.168;4.410;2023-06-10T06:51:58;4.45;;;4.05;;
57744;SDS011;58941;50.168;4.410;2023-06-10T06:54:23;4.63;;;4.13;;
57744;SDS011;58941;50.168;4.410;2023-06-10T06:56:49;3.80;;;3.50;;
57744;SDS011;58941;50.168;4.410;2023-06-10T06:59:15;4.50;;;4.10;;
57744;SDS011;58941;50.168;4.410;2023-06-10T07:01:42;4.22;;;3.83;;
57744;SDS011;58941;50.168;4.410;2023-06-10T07:04:08;4.10;;;3.80;;
57744;SDS011;58941;50.168;4.410;2023-06-10T07:06:33;3.88;;;3.58;;
57744;SDS011;58941;50.168;4.410;2023-06-10T07:08:59;4.05;;;3.75;;
57744;SDS011;58941;50.168;4.410;2023-06-10T07:11:24;4.38;;;3.97;;
57744;SDS011;58941;50.168;4.410;2023-06-10T07:13:50;4.53;;;4.13;;
57744;SDS011;58941;50.168;4.410;2023-06-10T07:16:15;4.40;;;4.00;;
57744;SDS011;58941;50.168;4.410;2023-06-10T07:18:41;4.32;;;3.92;;
57744;SDS011;58941;50.168;4.410;2023-06-10T07:21:06;4.22;;;3.92;;
57744;SDS011;58941;50.168;4.410;2023-06-10T07:23:32;4.07;;;3.78;;
57744;SDS011;58941;50.168;4.410;2023-06-10T07:25:57;4.07;;;3.75;;
57744;SDS011;58941;50.168;4.410;2023-06-10T07:28:23;4.55;;;4.15;;
57744;SDS011;58941;50.168;4.410;2023-06-10T07:30:48;4.57;;;4.18;;
57744;SDS011;58941;50.168;4.410;2023-06-10T07:33:14;4.70;;;4.05;;
57744;SDS011;58941;50.168;4.410;2023-06-10T07:35:39;4.28;;;3.97;;
57744;SDS011;58941;50.168;4.410;2023-06-10T07:38:05;4.03;;;3.72;;
57744;SDS011;58941;50.168;4.410;2023-06-10T07:40:30;4.38;;;3.97;;
57744;SDS011;58941;50.168;4.410;2023-06-10T07:42:56;3.67;;;3.38;;
57744;SDS011;58941;50.168;4.410;2023-06-10T07:45:21;4.95;;;4.10;;
57744;SDS011;58941;50.168;4.410;2023-06-10T07:47:46;4.20;;;3.90;;
57744;SDS011;58941;50.168;4.410;2023-06-10T07:50:12;4.10;;;3.75;;
57744;SDS011;58941;50.168;4.410;2023-06-10T07:52:37;4.30;;;3.88;;
57744;SDS011;58941;50.168;4.410;2023-06-10T07:55:03;3.90;;;3.50;;
57744;SDS011;58941;50.168;4.410;2023-06-10T07:57:29;3.80;;;3.50;;
57744;SDS011;58941;50.168;4.410;2023-06-10T07:59:56;4.00;;;3.70;;
57744;SDS011;58941;50.168;4.410;2023-06-10T08:02:23;3.55;;;3.25;;
57744;SDS011;58941;50.168;4.410;2023-06-10T08:04:48;3.60;;;3.30;;
57744;SDS011;58941;50.168;4.410;2023-06-10T08:07:14;3.80;;;3.50;;
57744;SDS011;58941;50.168;4.410;2023-06-10T08:09:39;3.83;;;3.53;;
57744;SDS011;58941;50.168;4.410;2023-06-10T08:12:05;3.80;;;3.47;;
57744;SDS011;58941;50.168;4.410;2023-06-10T08:14:31;3.38;;;3.17;;
57744;SDS011;58941;50.168;4.410;2023-06-10T08:16:56;3.83;;;3.47;;
57744;SDS011;58941;50.168;4.410;2023-06-10T08:19:21;3.60;;;3.30;;
57744;SDS011;58941;50.168;4.410;2023-06-10T08:21:47;3.88;;;3.58;;
57744;SDS011;58941;50.168;4.410;2023-06-10T08:24:12;3.60;;;3.30;;
57744;SDS011;58941;50.168;4.410;2023-06-10T08:26:40;3.83;;;3.30;;
57744;SDS011;58941;50.168;4.410;2023-06-10T08:29:06;3.40;;;3.20;;
57744;SDS011;58941;50.168;4.410;2023-06-10T08:31:31;3.38;;;3.13;;
57744;SDS011;58941;50.168;4.410;2023-06-10T08:33:57;3.75;;;3.45;;
57744;SDS011;58941;50.168;4.410;2023-06-10T08:36:22;3.20;;;2.90;;
57744;SDS011;58941;50.168;4.410;2023-06-10T08:38:48;3.70;;;3.40;;
57744;SDS011;58941;50.168;4.410;2023-06-10T08:41:14;3.85;;;3.55;;
57744;SDS011;58941;50.168;4.410;2023-06-10T08:43:52;3.42;;;3.22;;
57744;SDS011;58941;50.168;4.410;2023-06-10T08:46:20;3.47;;;3.17;;
57744;SDS011;58941;50.168;4.410;2023-06-10T08:48:45;3.28;;;3.08;;
57744;SDS011;58941;50.168;4.410;2023-06-10T08:51:14;4.70;;;3.40;;
57744;SDS011;58941;50.168;4.410;2023-06-10T08:53:50;3.70;;;3.40;;
57744;SDS011;58941;50.168;4.410;2023-06-10T08:56:19;3.45;;;3.25;;
57744;SDS011;58941;50.168;4.410;2023-06-10T08:58:45;3.35;;;3.05;;
57744;SDS011;58941;50.168;4.410;2023-06-10T09:01:12;3.97;;;3.60;;
57744;SDS011;58941;50.168;4.410;2023-06-10T09:03:38;3.38;;;3.08;;
57744;SDS011;58941;50.168;4.410;2023-06-10T09:06:04;3.55;;;3.25;;
57744;SDS011;58941;50.168;4.410;2023-06-10T09:08:31;3.67;;;3.38;;
57744;SDS011;58941;50.168;4.410;2023-06-10T09:10:58;3.47;;;3.17;;
57744;SDS011;58941;50.168;4.410;2023-06-10T09:13:23;3.20;;;2.90;;
57744;SDS011;58941;50.168;4.410;2023-06-10T09:15:49;3.40;;;3.10;;
57744;SDS011;58941;50.168;4.410;2023-06-10T09:18:16;2.90;;;2.70;;
57744;SDS011;58941;50.168;4.410;2023-06-10T09:20:42;3.15;;;2.95;;
57744;SDS011;58941;50.168;4.410;2023-06-10T09:23:08;3.55;;;3.17;;
57744;SDS011;58941;50.168;4.410;2023-06-10T09:25:34;3.22;;;2.92;;
57744;SDS011;58941;50.168;4.410;2023-06-10T09:28:01;3.33;;;3.00;;
57744;SDS011;58941;50.168;4.410;2023-06-10T09:30:27;3.33;;;3.03;;
57744;SDS011;58941;50.168;4.410;2023-06-10T09:32:56;3.08;;;2.85;;
57744;SDS011;58941;50.168;4.410;2023-06-10T09:35:25;3.35;;;3.05;;
57744;SDS011;58941;50.168;4.410;2023-06-10T09:37:52;3.80;;;3.20;;
57744;SDS011;58941;50.168;4.410;2023-06-10T09:40:18;4.05;;;3.45;;
57744;SDS011;58941;50.168;4.410;2023-06-10T09:42:43;3.75;;;3.05;;
57744;SDS011;58941;50.168;4.410;2023-06-10T09:45:08;2.75;;;2.55;;
57744;SDS011;58941;50.168;4.410;2023-06-10T09:47:34;3.33;;;3.03;;
57744;SDS011;58941;50.168;4.410;2023-06-10T09:50:00;3.17;;;2.88;;
57744;SDS011;58941;50.168;4.410;2023-06-10T09:52:27;3.28;;;2.97;;
57744;SDS011;58941;50.168;4.410;2023-06-10T09:54:53;3.10;;;2.90;;
57744;SDS011;58941;50.168;4.410;2023-06-10T09:57:20;3.38;;;3.13;;
57744;SDS011;58941;50.168;4.410;2023-06-10T09:59:46;3.17;;;2.88;;
57744;SDS011;58941;50.168;4.410;2023-06-10T10:02:15;3.45;;;3.15;;
57744;SDS011;58941;50.168;4.410;2023-06-10T10:04:41;3.30;;;3.00;;
57744;SDS011;58941;50.168;4.410;2023-06-10T10:07:07;3.20;;;2.90;;
57744;SDS011;58941;50.168;4.410;2023-06-10T10:09:35;2.92;;;2.72;;
57744;SDS011;58941;50.168;4.410;2023-06-10T10:12:01;3.00;;;2.80;;
57744;SDS011;58941;50.168;4.410;2023-06-10T10:14:28;3.00;;;2.78;;
57744;SDS011;58941;50.168;4.410;2023-06-10T10:16:54;3.25;;;3.00;;
57744;SDS011;58941;50.168;4.410;2023-06-10T10:19:23;2.75;;;2.55;;
57744;SDS011;58941;50.168;4.410;2023-06-10T10:21:54;3.08;;;2.78;;
57744;SDS011;58941;50.168;4.410;2023-06-10T10:24:23;3.00;;;2.80;;
57744;SDS011;58941;50.168;4.410;2023-06-10T10:26:51;3.40;;;3.10;;
57744;SDS011;58941;50.168;4.410;2023-06-10T10:31:44;3.30;;;3.00;;
57744;SDS011;58941;50.168;4.410;2023-06-10T10:34:12;2.78;;;2.58;;
57744;SDS011;58941;50.168;4.410;2023-06-10T10:36:39;3.13;;;2.83;;
57744;SDS011;58941;50.168;4.410;2023-06-10T10:39:05;3.13;;;2.92;;
57744;SDS011;58941;50.168;4.410;2023-06-10T10:41:31;3.10;;;2.80;;
57744;SDS011;58941;50.168;4.410;2023-06-10T10:43:57;2.90;;;2.70;;
57744;SDS011;58941;50.168;4.410;2023-06-10T10:46:23;3.08;;;2.85;;
57744;SDS011;58941;50.168;4.410;2023-06-10T10:48:52;3.47;;;3.17;;
57744;SDS011;58941;50.168;4.410;2023-06-10T10:51:19;3.20;;;2.90;;
57744;SDS011;58941;50.168;4.410;2023-06-10T10:54:06;3.03;;;2.83;;
57744;SDS011;58941;50.168;4.410;2023-06-10T10:56:31;3.20;;;2.90;;
57744;SDS011;58941;50.168;4.410;2023-06-10T10:59:06;3.28;;;3.00;;
57744;SDS011;58941;50.168;4.410;2023-06-10T11:01:41;2.90;;;2.70;;
57744;SDS011;58941;50.168;4.410;2023-06-10T11:04:08;2.97;;;2.78;;
57744;SDS011;58941;50.168;4.410;2023-06-10T11:06:34;3.08;;;2.88;;
57744;SDS011;58941;50.168;4.410;2023-06-10T11:09:00;2.92;;;2.72;;
57744;SDS011;58941;50.168;4.410;2023-06-10T11:11:26;2.90;;;2.70;;
57744;SDS011;58941;50.168;4.410;2023-06-10T11:16:28;3.13;;;2.92;;
57744;SDS011;58941;50.168;4.410;2023-06-10T11:18:54;2.85;;;2.65;;
57744;SDS011;58941;50.168;4.410;2023-06-10T11:21:19;2.95;;;2.75;;
57744;SDS011;58941;50.168;4.410;2023-06-10T11:23:45;3.08;;;2.88;;
57744;SDS011;58941;50.168;4.410;2023-06-10T11:31:09;3.30;;;3.03;;
57744;SDS011;58941;50.168;4.410;2023-06-10T11:33:34;3.17;;;2.97;;
57744;SDS011;58941;50.168;4.410;2023-06-10T11:36:06;4.15;;;3.35;;
57744;SDS011;58941;50.168;4.410;2023-06-10T11:38:32;3.22;;;2.97;;
57744;SDS011;58941;50.168;4.410;2023-06-10T11:40:57;3.67;;;3.38;;
57744;SDS011;58941;50.168;4.410;2023-06-10T11:43:23;3.58;;;3.30;;
57744;SDS011;58941;50.168;4.410;2023-06-10T11:45:53;3.53;;;3.22;;
57744;SDS011;58941;50.168;4.410;2023-06-10T11:48:20;3.72;;;3.42;;
57744;SDS011;58941;50.168;4.410;2023-06-10T11:50:45;3.60;;;3.30;;
57744;SDS011;58941;50.168;4.410;2023-06-10T11:53:11;3.35;;;3.05;;
57744;SDS011;58941;50.168;4.410;2023-06-10T11:55:43;3.85;;;3.55;;
57744;SDS011;58941;50.168;4.410;2023-06-10T11:58:21;3.53;;;3.22;;
57744;SDS011;58941;50.168;4.410;2023-06-10T12:00:48;4.32;;;3.67;;
57744;SDS011;58941;50.168;4.410;2023-06-10T12:03:14;3.67;;;3.38;;
57744;SDS011;58941;50.168;4.410;2023-06-10T12:05:39;4.88;;;3.58;;
57744;SDS011;58941;50.168;4.410;2023-06-10T12:08:11;4.05;;;3.63;;
57744;SDS011;58941;50.168;4.410;2023-06-10T12:10:40;4.03;;;3.63;;
57744;SDS011;58941;50.168;4.410;2023-06-10T12:13:07;3.58;;;3.28;;
57744;SDS011;58941;50.168;4.410;2023-06-10T12:15:34;4.20;;;3.40;;
57744;SDS011;58941;50.168;4.410;2023-06-10T12:17:59;3.90;;;3.60;;
57744;SDS011;58941;50.168;4.410;2023-06-10T12:20:26;3.50;;;3.20;;
57744;SDS011;58941;50.168;4.410;2023-06-10T12:22:51;4.55;;;3.30;;
57744;SDS011;58941;50.168;4.410;2023-06-10T12:25:18;3.70;;;3.40;;
57744;SDS011;58941;50.168;4.410;2023-06-10T12:27:51;3.33;;;3.10;;
57744;SDS011;58941;50.168;4.410;2023-06-10T12:30:19;3.75;;;3.45;;
57744;SDS011;58941;50.168;4.410;2023-06-10T12:32:45;3.90;;;3.60;;
57744;SDS011;58941;50.168;4.410;2023-06-10T12:35:12;4.00;;;3.70;;
57744;SDS011;58941;50.168;4.410;2023-06-10T12:37:38;4.32;;;3.88;;
57744;SDS011;58941;50.168;4.410;2023-06-10T12:40:04;3.67;;;3.38;;
57744;SDS011;58941;50.168;4.410;2023-06-10T12:42:31;3.58;;;3.25;;
57744;SDS011;58941;50.168;4.410;2023-06-10T12:45:00;3.90;;;3.60;;
57744;SDS011;58941;50.168;4.410;2023-06-10T12:47:30;3.80;;;3.50;;
57744;SDS011;58941;50.168;4.410;2023-06-10T12:49:57;3.63;;;3.42;;
57744;SDS011;58941;50.168;4.410;2023-06-10T12:52:24;3.95;;;3.65;;
57744;SDS011;58941;50.168;4.410;2023-06-10T12:54:50;3.40;;;3.10;;
57744;SDS011;58941;50.168;4.410;2023-06-10T12:57:15;3.83;;;3.53;;
57744;SDS011;58941;50.168;4.410;2023-06-10T12:59:42;3.70;;;3.40;;
57744;SDS011;58941;50.168;4.410;2023-06-10T13:02:15;3.83;;;3.53;;
57744;SDS011;58941;50.168;4.410;2023-06-10T13:04:41;3.55;;;3.25;;
57744;SDS011;58941;50.168;4.410;2023-06-10T13:07:07;3.70;;;3.40;;
57744;SDS011;58941;50.168;4.410;2023-06-10T13:09:33;3.33;;;3.10;;
57744;SDS011;58941;50.168;4.410;2023-06-10T13:11:58;3.90;;;3.60;;
57744;SDS011;58941;50.168;4.410;2023-06-10T13:14:25;3.88;;;3.47;;
57744;SDS011;58941;50.168;4.410;2023-06-10T13:16:50;4.93;;;3.40;;
57744;SDS011;58941;50.168;4.410;2023-06-10T13:19:16;3.65;;;3.35;;
57744;SDS011;58941;50.168;4.410;2023-06-10T13:21:41;3.47;;;3.17;;
57744;SDS011;58941;50.168;4.410;2023-06-10T13:24:07;3.70;;;3.38;;
57744;SDS011;58941;50.168;4.410;2023-06-10T13:26:32;3.65;;;3.35;;
57744;SDS011;58941;50.168;4.410;2023-06-10T13:28:58;3.38;;;3.00;;
57744;SDS011;58941;50.168;4.410;2023-06-10T13:31:23;3.60;;;3.30;;
57744;SDS011;58941;50.168;4.410;2023-06-10T13:33:49;3.40;;;3.10;;
57744;SDS011;58941;50.168;4.410;2023-06-10T13:36:14;3.38;;;3.08;;
57744;SDS011;58941;50.168;4.410;2023-06-10T13:38:40;3.83;;;3.40;;
57744;SDS011;58941;50.168;4.410;2023-06-10T13:41:05;3.53;;;3.17;;
57744;SDS011;58941;50.168;4.410;2023-06-10T13:43:31;3.80;;;3.40;;
57744;SDS011;58941;50.168;4.410;2023-06-10T13:45:57;4.15;;;3.75;;
57744;SDS011;58941;50.168;4.410;2023-06-10T13:48:22;3.47;;;3.17;;
57744;SDS011;58941;50.168;4.410;2023-06-10T13:50:48;3.85;;;3.38;;
57744;SDS011;58941;50.168;4.410;2023-06-10T13:53:13;3.90;;;3.60;;
57744;SDS011;58941;50.168;4.410;2023-06-10T13:55:39;3.60;;;3.30;;
57744;SDS011;58941;50.168;4.410;2023-06-10T13:58:05;3.50;;;3.30;;
57744;SDS011;58941;50.168;4.410;2023-06-10T14:00:31;3.25;;;2.97;;
57744;SDS011;58941;50.168;4.410;2023-06-10T14:02:57;3.63;;;3.33;;
57744;SDS011;58941;50.168;4.410;2023-06-10T14:05:22;3.42;;;3.13;;
57744;SDS011;58941;50.168;4.410;2023-06-10T14:07:47;3.72;;;3.25;;
57744;SDS011;58941;50.168;4.410;2023-06-10T14:10:13;3.53;;;3.22;;
57744;SDS011;58941;50.168;4.410;2023-06-10T14:12:39;3.72;;;3.42;;
57744;SDS011;58941;50.168;4.410;2023-06-10T14:15:05;3.45;;;3.20;;
57744;SDS011;58941;50.168;4.410;2023-06-10T14:17:30;3.50;;;3.30;;
57744;SDS011;58941;50.168;4.410;2023-06-10T14:19:56;3.30;;;3.00;;
57744;SDS011;58941;50.168;4.410;2023-06-10T14:22:21;4.25;;;3.40;;
57744;SDS011;58941;50.168;4.410;2023-06-10T14:24:47;3.22;;;2.92;;
57744;SDS011;58941;50.168;4.410;2023-06-10T14:27:12;3.10;;;2.80;;
57744;SDS011;58941;50.168;4.410;2023-06-10T14:29:38;3.75;;;3.15;;
57744;SDS011;58941;50.168;4.410;2023-06-10T14:32:07;4.20;;;3.45;;
57744;SDS011;58941;50.168;4.410;2023-06-10T14:34:34;4.13;;;3.22;;
57744;SDS011;58941;50.168;4.410;2023-06-10T14:37:00;3.80;;;3.50;;
57744;SDS011;58941;50.168;4.410;2023-06-10T14:39:26;3.53;;;3.22;;
57744;SDS011;58941;50.168;4.410;2023-06-10T14:41:51;3.60;;;3.30;;
57744;SDS011;58941;50.168;4.410;2023-06-10T14:44:19;3.47;;;3.17;;
57744;SDS011;58941;50.168;4.410;2023-06-10T14:46:45;3.20;;;2.90;;
57744;SDS011;58941;50.168;4.410;2023-06-10T14:49:11;3.72;;;3.35;;
57744;SDS011;58941;50.168;4.410;2023-06-10T14:51:36;3.55;;;3.25;;
57744;SDS011;58941;50.168;4.410;2023-06-10T14:54:02;3.60;;;3.30;;
57744;SDS011;58941;50.168;4.410;2023-06-10T14:56:27;3.42;;;3.15;;
57744;SDS011;58941;50.168;4.410;2023-06-10T14:58:53;3.55;;;3.35;;
57744;SDS011;58941;50.168;4.410;2023-06-10T15:01:18;3.60;;;3.20;;